Archival Weather

Chicago O'Hare International

Chicago, Illinois (KORD)

Report from: Thursday, June 23, 2022 6:51 PM CDT
Current time: Tuesday, August 16, 2022 1:15 AM CDT

Current weather
Weather history
Weather forecast

Temperature27.2°C (81.0°F)
Heat index26.9°C (80.4°F)
Dew point8.9°C (48.0°F)
Winds 8 kts (4.1 m/s, 9.2 mph) East (100°)
Visibility10 mi. (16.1 km)
Clouds Few clouds 25,000 ft. (7,620 m)
Altimeter30.00 in.Hg (1016 mB)
Relative humidity32 %
Density altitude1,482 ft. (452 m)
Sea-level pressure101.6 kPa (1016 mB, 29.99 in.Hg)
Max temp last 6 hours29.4°C (84.9°F)
Min temp last 6 hours27.2°C (81.0°F)
Remarks Automated weather observing station with precipitation discriminator
Pressure falling more quickly
Flight conditions Visual Meteorological Conditions
Raw dataKORD 232351Z 10008KT 10SM FEW250 27/09 A3000 RMK AO2 SLP156 T02720089 10294 20272 58005
An error has occurred. This application may no longer respond until reloaded. Reload 🗙